Narriah, Australia

5:24 PM AEDT on January 21, 2017 (GMT +1100)
Griffith Airport | | Change Station

Elev 436 ft 34.25 °S, 146.07 °E | Updated 24 minutes ago

Clear
Clear
86 °F
Feels Like 86 °F
N
9
Wind Variable Wind from South

Today
High -- | Low -- °F
--% Chance of Precip.
Yesterday
High -- | Low -- °F
Precip. -- in
Pressure 29.83 in
Visibility 6.2 miles
Clouds
Dew Point 37 °F
Humidity 18%
Rainfall 0.00 in
Snow Depth Not available.
6:23 AM 8:24 PM
Last Quarter, 38% visible
METAR YGTH 210600Z AUTO 17008KT 120V200 9999 // NCD 30/03 Q1010
Pressure 29.83 in
Visibility 6.2 miles
Clouds
Dew Point 37 °F
Humidity 18%
Rainfall 0.00 in
Snow Depth Not available.
6:23 AM 8:24 PM
Last Quarter, 38% visible
METAR YGTH 210600Z AUTO 17008KT 120V200 9999 // NCD 30/03 Q1010

Get Your Daily Forecast Email!

Thanks for signing up!

Be on the lookout for a verification email in your inbox.

You'll start receiving the daily forecast at 8 AM.

×

10-Day Weather Forecast

×

Almanac

Astronomy

Jan. 21, 2017 Rise Set
Actual Time
Civil Twilight
Nautical Twilight
Astronomical Twilight
Moon
Length of Visible Light
Length of Day
Tomorrow will be .
, % of the Moon is Illuminated

Today's Extremes

Country Highs Country Lows

Community

WunderPhotos

Upload Photos

1,962,540 photos uploaded!

WunderBlog® & News

Nearby

Air Quality

  Air Quality AQ Index Pollutant
Not available.

Snow Depth

Station Depth Elevation

Earthquake Activity

City Distance Mag. Time & Date
Minimum magnitude displayed is 2.5.

Coastal Water Temperatures

Place Temperature

Stations

Nearby Weather Stations

Station Location Temp. Windchill Dew Point Humidity Wind Precip. Elev Updated Type